sensor_id;sensor_type;location;lat;lon;timestamp;pressure;altitude;pressure_sealevel;temperature;humidity
68077;BME280;54866;53.458;14.540;2022-10-15T00:00:19;100127.71;;;11.17;95.78
68077;BME280;54866;53.458;14.540;2022-10-15T00:02:49;100124.12;;;11.18;95.79
68077;BME280;54866;53.458;14.540;2022-10-15T00:05:19;100118.64;;;11.21;95.53
68077;BME280;54866;53.458;14.540;2022-10-15T00:07:49;100115.52;;;11.22;95.47
68077;BME280;54866;53.458;14.540;2022-10-15T00:10:19;100106.27;;;11.25;95.37
68077;BME280;54866;53.458;14.540;2022-10-15T00:12:49;100103.67;;;11.26;95.21
68077;BME280;54866;53.458;14.540;2022-10-15T00:15:19;100102.40;;;11.26;95.37
68077;BME280;54866;53.458;14.540;2022-10-15T00:17:49;100102.67;;;11.27;95.16
68077;BME280;54866;53.458;14.540;2022-10-15T00:20:19;100096.33;;;11.27;95.21
68077;BME280;54866;53.458;14.540;2022-10-15T00:22:49;100092.86;;;11.28;95.03
68077;BME280;54866;53.458;14.540;2022-10-15T00:25:19;100092.70;;;11.29;94.98
68077;BME280;54866;53.458;14.540;2022-10-15T00:27:48;100086.32;;;11.29;95.10
68077;BME280;54866;53.458;14.540;2022-10-15T00:30:18;100086.23;;;11.32;94.75
68077;BME280;54866;53.458;14.540;2022-10-15T00:32:48;100092.04;;;11.32;94.47
68077;BME280;54866;53.458;14.540;2022-10-15T00:35:18;100097.33;;;11.34;94.51
68077;BME280;54866;53.458;14.540;2022-10-15T00:37:48;100095.37;;;11.34;94.36
68077;BME280;54866;53.458;14.540;2022-10-15T00:40:18;100096.44;;;11.32;93.97
68077;BME280;54866;53.458;14.540;2022-10-15T00:42:48;100096.55;;;11.29;93.97
68077;BME280;54866;53.458;14.540;2022-10-15T00:45:18;100098.51;;;11.25;94.07
68077;BME280;54866;53.458;14.540;2022-10-15T00:47:50;100094.25;;;11.15;93.95
68077;BME280;54866;53.458;14.540;2022-10-15T00:50:22;100092.98;;;11.04;94.40
68077;BME280;54866;53.458;14.540;2022-10-15T00:53:00;100089.64;;;10.96;95.47
68077;BME280;54866;53.458;14.540;2022-10-15T00:55:32;100091.12;;;10.95;95.92
68077;BME280;54866;53.458;14.540;2022-10-15T00:58:06;100088.00;;;10.97;95.84
68077;BME280;54866;53.458;14.540;2022-10-15T01:00:37;100079.54;;;10.95;95.63
68077;BME280;54866;53.458;14.540;2022-10-15T01:03:07;100083.77;;;10.98;95.77
68077;BME280;54866;53.458;14.540;2022-10-15T01:05:38;100082.02;;;11.00;95.82
68077;BME280;54866;53.458;14.540;2022-10-15T01:08:08;100084.08;;;11.03;95.69
68077;BME280;54866;53.458;14.540;2022-10-15T01:10:47;100078.02;;;11.05;95.56
68077;BME280;54866;53.458;14.540;2022-10-15T01:13:25;100073.77;;;11.07;95.34
68077;BME280;54866;53.458;14.540;2022-10-15T01:16:02;100072.30;;;11.08;95.45
68077;BME280;54866;53.458;14.540;2022-10-15T01:18:40;100073.98;;;11.09;95.29
68077;BME280;54866;53.458;14.540;2022-10-15T01:21:17;100073.59;;;11.11;95.30
68077;BME280;54866;53.458;14.540;2022-10-15T01:26:57;100067.22;;;11.14;94.82
68077;BME280;54866;53.458;14.540;2022-10-15T01:29:48;100060.04;;;11.15;94.89
68077;BME280;54866;53.458;14.540;2022-10-15T01:32:24;100061.18;;;11.16;95.01
68077;BME280;54866;53.458;14.540;2022-10-15T01:34:59;100064.21;;;11.16;94.78
68077;BME280;54866;53.458;14.540;2022-10-15T01:37:38;100062.02;;;11.15;94.71
68077;BME280;54866;53.458;14.540;2022-10-15T01:40:14;100054.73;;;11.14;95.00
68077;BME280;54866;53.458;14.540;2022-10-15T01:42:50;100053.89;;;11.15;95.03
68077;BME280;54866;53.458;14.540;2022-10-15T01:45:22;100056.17;;;11.15;95.02
68077;BME280;54866;53.458;14.540;2022-10-15T01:47:57;100048.65;;;11.14;95.00
68077;BME280;54866;53.458;14.540;2022-10-15T01:50:31;100046.63;;;11.13;94.90
68077;BME280;54866;53.458;14.540;2022-10-15T01:53:04;100046.23;;;11.12;95.01
68077;BME280;54866;53.458;14.540;2022-10-15T01:55:34;100043.95;;;11.12;95.41
68077;BME280;54866;53.458;14.540;2022-10-15T01:58:06;100042.10;;;11.10;95.35
68077;BME280;54866;53.458;14.540;2022-10-15T02:00:37;100044.27;;;11.10;95.56
68077;BME280;54866;53.458;14.540;2022-10-15T02:03:08;100045.34;;;11.10;95.61
68077;BME280;54866;53.458;14.540;2022-10-15T02:05:46;100042.67;;;11.10;95.97
68077;BME280;54866;53.458;14.540;2022-10-15T02:08:22;100044.52;;;11.11;96.07
68077;BME280;54866;53.458;14.540;2022-10-15T02:10:59;100040.23;;;11.12;96.02
68077;BME280;54866;53.458;14.540;2022-10-15T02:13:43;100033.13;;;11.11;95.92
68077;BME280;54866;53.458;14.540;2022-10-15T02:16:21;100033.75;;;11.11;96.13
68077;BME280;54866;53.458;14.540;2022-10-15T02:18:56;100030.29;;;11.11;95.86
68077;BME280;54866;53.458;14.540;2022-10-15T02:21:31;100028.40;;;11.10;96.01
68077;BME280;54866;53.458;14.540;2022-10-15T02:24:07;100020.10;;;11.08;95.96
68077;BME280;54866;53.458;14.540;2022-10-15T02:26:40;100016.56;;;11.08;96.43
68077;BME280;54866;53.458;14.540;2022-10-15T02:29:13;100013.45;;;11.10;96.45
68077;BME280;54866;53.458;14.540;2022-10-15T02:31:47;100008.91;;;11.07;96.36
68077;BME280;54866;53.458;14.540;2022-10-15T02:34:20;100003.49;;;11.01;96.43
68077;BME280;54866;53.458;14.540;2022-10-15T02:36:50;100001.60;;;11.01;96.79
68077;BME280;54866;53.458;14.540;2022-10-15T02:39:22;100002.72;;;11.02;97.00
68077;BME280;54866;53.458;14.540;2022-10-15T02:41:53;100004.75;;;11.03;96.87
68077;BME280;54866;53.458;14.540;2022-10-15T02:44:23;100000.23;;;11.04;97.26
68077;BME280;54866;53.458;14.540;2022-10-15T02:46:53;100000.20;;;11.04;97.00
68077;BME280;54866;53.458;14.540;2022-10-15T02:49:23;99994.50;;;11.05;97.14
68077;BME280;54866;53.458;14.540;2022-10-15T02:51:52;99993.87;;;11.04;97.19
68077;BME280;54866;53.458;14.540;2022-10-15T02:54:22;99989.38;;;11.05;97.31
68077;BME280;54866;53.458;14.540;2022-10-15T02:56:52;99989.94;;;11.05;97.48
68077;BME280;54866;53.458;14.540;2022-10-15T02:59:22;99982.06;;;11.04;97.58
68077;BME280;54866;53.458;14.540;2022-10-15T03:01:52;99983.87;;;11.04;97.75
68077;BME280;54866;53.458;14.540;2022-10-15T03:04:22;99980.15;;;11.02;98.02
68077;BME280;54866;53.458;14.540;2022-10-15T03:06:52;99977.98;;;11.01;98.35
68077;BME280;54866;53.458;14.540;2022-10-15T03:09:22;99974.81;;;10.99;98.42
68077;BME280;54866;53.458;14.540;2022-10-15T03:11:51;99971.25;;;10.97;98.58
68077;BME280;54866;53.458;14.540;2022-10-15T03:14:21;99976.15;;;10.96;98.59
68077;BME280;54866;53.458;14.540;2022-10-15T03:16:51;99971.70;;;10.94;98.82
68077;BME280;54866;53.458;14.540;2022-10-15T03:19:21;99969.85;;;10.93;98.88
68077;BME280;54866;53.458;14.540;2022-10-15T03:21:51;99964.63;;;10.92;99.20
68077;BME280;54866;53.458;14.540;2022-10-15T03:24:20;99962.63;;;10.93;99.94
68077;BME280;54866;53.458;14.540;2022-10-15T03:26:50;99961.18;;;10.94;99.93
68077;BME280;54866;53.458;14.540;2022-10-15T03:29:20;99957.73;;;10.93;99.72
68077;BME280;54866;53.458;14.540;2022-10-15T03:31:50;99955.39;;;10.91;99.97
68077;BME280;54866;53.458;14.540;2022-10-15T03:34:19;99950.86;;;10.91;100.00
68077;BME280;54866;53.458;14.540;2022-10-15T03:36:49;99945.13;;;10.90;100.00
68077;BME280;54866;53.458;14.540;2022-10-15T03:39:19;99943.08;;;10.89;100.00
68077;BME280;54866;53.458;14.540;2022-10-15T03:41:48;99944.57;;;10.90;100.00
68077;BME280;54866;53.458;14.540;2022-10-15T03:44:20;99944.11;;;10.90;100.00
68077;BME280;54866;53.458;14.540;2022-10-15T03:46:50;99938.15;;;10.89;100.00
68077;BME280;54866;53.458;14.540;2022-10-15T03:49:20;99934.53;;;10.88;100.00
68077;BME280;54866;53.458;14.540;2022-10-15T03:51:49;99937.98;;;10.87;100.00
68077;BME280;54866;53.458;14.540;2022-10-15T03:54:19;99932.31;;;10.85;100.00
68077;BME280;54866;53.458;14.540;2022-10-15T03:56:49;99934.34;;;10.84;100.00
68077;BME280;54866;53.458;14.540;2022-10-15T03:59:19;99933.27;;;10.83;100.00
68077;BME280;54866;53.458;14.540;2022-10-15T04:01:48;99930.15;;;10.82;100.00
68077;BME280;54866;53.458;14.540;2022-10-15T04:04:18;99927.56;;;10.82;100.00
68077;BME280;54866;53.458;14.540;2022-10-15T04:06:48;99923.03;;;10.79;100.00
68077;BME280;54866;53.458;14.540;2022-10-15T04:09:18;99925.52;;;10.79;100.00
68077;BME280;54866;53.458;14.540;2022-10-15T04:11:48;99920.05;;;10.79;100.00
68077;BME280;54866;53.458;14.540;2022-10-15T04:14:18;99920.39;;;10.79;100.00
68077;BME280;54866;53.458;14.540;2022-10-15T04:16:48;99915.44;;;10.79;100.00
68077;BME280;54866;53.458;14.540;2022-10-15T04:19:18;99916.52;;;10.79;100.00
68077;BME280;54866;53.458;14.540;2022-10-15T04:21:47;99918.89;;;10.78;100.00
68077;BME280;54866;53.458;14.540;2022-10-15T04:24:17;99917.23;;;10.77;100.00
68077;BME280;54866;53.458;14.540;2022-10-15T04:26:47;99919.50;;;10.77;100.00
68077;BME280;54866;53.458;14.540;2022-10-15T04:29:17;99911.88;;;10.76;100.00
68077;BME280;54866;53.458;14.540;2022-10-15T04:31:47;99912.02;;;10.76;100.00
68077;BME280;54866;53.458;14.540;2022-10-15T04:34:17;99912.33;;;10.77;100.00
68077;BME280;54866;53.458;14.540;2022-10-15T04:36:46;99914.08;;;10.79;100.00
68077;BME280;54866;53.458;14.540;2022-10-15T04:39:16;99914.05;;;10.79;100.00
68077;BME280;54866;53.458;14.540;2022-10-15T04:41:46;99909.37;;;10.78;100.00
68077;BME280;54866;53.458;14.540;2022-10-15T04:44:16;99912.38;;;10.80;100.00
68077;BME280;54866;53.458;14.540;2022-10-15T04:46:46;99905.90;;;10.79;100.00
68077;BME280;54866;53.458;14.540;2022-10-15T04:49:15;99904.84;;;10.81;100.00
68077;BME280;54866;53.458;14.540;2022-10-15T04:51:45;99906.49;;;10.83;100.00
68077;BME280;54866;53.458;14.540;2022-10-15T04:54:15;99908.34;;;10.84;100.00
68077;BME280;54866;53.458;14.540;2022-10-15T04:56:45;99905.55;;;10.85;100.00
68077;BME280;54866;53.458;14.540;2022-10-15T04:59:15;99905.16;;;10.86;100.00
68077;BME280;54866;53.458;14.540;2022-10-15T05:01:44;99905.53;;;10.84;100.00
68077;BME280;54866;53.458;14.540;2022-10-15T05:04:16;99912.89;;;10.86;100.00
68077;BME280;54866;53.458;14.540;2022-10-15T05:06:46;99910.11;;;10.87;100.00
68077;BME280;54866;53.458;14.540;2022-10-15T05:09:16;99909.55;;;10.88;100.00
68077;BME280;54866;53.458;14.540;2022-10-15T05:11:46;99915.86;;;10.88;100.00
68077;BME280;54866;53.458;14.540;2022-10-15T05:14:16;99910.63;;;10.87;100.00
68077;BME280;54866;53.458;14.540;2022-10-15T05:16:46;99910.52;;;10.87;100.00
68077;BME280;54866;53.458;14.540;2022-10-15T05:19:15;99917.95;;;10.88;100.00
68077;BME280;54866;53.458;14.540;2022-10-15T05:21:45;99915.61;;;10.89;100.00
68077;BME280;54866;53.458;14.540;2022-10-15T05:24:15;99915.09;;;10.89;100.00
68077;BME280;54866;53.458;14.540;2022-10-15T05:26:45;99915.58;;;10.89;100.00
68077;BME280;54866;53.458;14.540;2022-10-15T05:29:15;99910.83;;;10.89;100.00
68077;BME280;54866;53.458;14.540;2022-10-15T05:31:45;99912.52;;;10.90;100.00
68077;BME280;54866;53.458;14.540;2022-10-15T05:34:14;99908.60;;;10.91;100.00
68077;BME280;54866;53.458;14.540;2022-10-15T05:36:44;99903.92;;;10.92;100.00
68077;BME280;54866;53.458;14.540;2022-10-15T05:39:14;99906.92;;;10.93;100.00
68077;BME280;54866;53.458;14.540;2022-10-15T05:41:44;99906.05;;;10.94;100.00
68077;BME280;54866;53.458;14.540;2022-10-15T05:44:14;99907.45;;;10.93;100.00
68077;BME280;54866;53.458;14.540;2022-10-15T05:46:43;99903.46;;;10.93;100.00
68077;BME280;54866;53.458;14.540;2022-10-15T05:49:13;99907.67;;;10.95;100.00
68077;BME280;54866;53.458;14.540;2022-10-15T05:51:43;99912.67;;;10.96;100.00
68077;BME280;54866;53.458;14.540;2022-10-15T05:54:13;99914.67;;;10.97;100.00
68077;BME280;54866;53.458;14.540;2022-10-15T05:56:42;99912.21;;;10.97;100.00
68077;BME280;54866;53.458;14.540;2022-10-15T05:59:12;99917.89;;;10.99;100.00
68077;BME280;54866;53.458;14.540;2022-10-15T06:01:42;99914.66;;;10.99;100.00
68077;BME280;54866;53.458;14.540;2022-10-15T06:04:12;99918.78;;;11.00;100.00
68077;BME280;54866;53.458;14.540;2022-10-15T06:06:41;99919.17;;;11.00;100.00
68077;BME280;54866;53.458;14.540;2022-10-15T06:09:11;99919.25;;;11.01;100.00
68077;BME280;54866;53.458;14.540;2022-10-15T06:11:42;99920.34;;;11.01;100.00
68077;BME280;54866;53.458;14.540;2022-10-15T06:14:11;99924.95;;;11.00;100.00
68077;BME280;54866;53.458;14.540;2022-10-15T06:16:41;99925.13;;;11.00;100.00
68077;BME280;54866;53.458;14.540;2022-10-15T06:19:11;99932.14;;;11.01;100.00
68077;BME280;54866;53.458;14.540;2022-10-15T06:21:42;99934.20;;;11.01;100.00
68077;BME280;54866;53.458;14.540;2022-10-15T06:24:12;99930.33;;;11.01;100.00
68077;BME280;54866;53.458;14.540;2022-10-15T06:26:42;99927.93;;;11.00;100.00
68077;BME280;54866;53.458;14.540;2022-10-15T06:29:12;99929.21;;;11.02;100.00
68077;BME280;54866;53.458;14.540;2022-10-15T06:31:41;99931.91;;;11.03;100.00
68077;BME280;54866;53.458;14.540;2022-10-15T06:34:11;99930.90;;;11.05;100.00
68077;BME280;54866;53.458;14.540;2022-10-15T06:36:41;99932.90;;;11.06;100.00
68077;BME280;54866;53.458;14.540;2022-10-15T06:39:11;99931.98;;;11.06;100.00
68077;BME280;54866;53.458;14.540;2022-10-15T06:41:40;99932.51;;;11.06;100.00
68077;BME280;54866;53.458;14.540;2022-10-15T06:44:10;99935.94;;;11.07;100.00
68077;BME280;54866;53.458;14.540;2022-10-15T06:46:40;99939.73;;;11.08;100.00
68077;BME280;54866;53.458;14.540;2022-10-15T06:49:10;99941.33;;;11.08;100.00
68077;BME280;54866;53.458;14.540;2022-10-15T06:51:40;99944.25;;;11.09;100.00
68077;BME280;54866;53.458;14.540;2022-10-15T06:54:09;99946.70;;;11.09;100.00
68077;BME280;54866;53.458;14.540;2022-10-15T06:56:39;99945.19;;;11.10;100.00
68077;BME280;54866;53.458;14.540;2022-10-15T06:59:09;99943.90;;;11.11;100.00
68077;BME280;54866;53.458;14.540;2022-10-15T07:01:39;99944.96;;;11.13;100.00
68077;BME280;54866;53.458;14.540;2022-10-15T07:04:09;99947.35;;;11.15;100.00
68077;BME280;54866;53.458;14.540;2022-10-15T07:06:38;99945.52;;;11.18;100.00
68077;BME280;54866;53.458;14.540;2022-10-15T07:09:09;99954.96;;;11.21;100.00
68077;BME280;54866;53.458;14.540;2022-10-15T07:11:39;99956.20;;;11.23;100.00
68077;BME280;54866;53.458;14.540;2022-10-15T07:14:09;99962.31;;;11.25;100.00
68077;BME280;54866;53.458;14.540;2022-10-15T07:16:38;99960.71;;;11.27;100.00
68077;BME280;54866;53.458;14.540;2022-10-15T07:19:08;99964.33;;;11.30;100.00
68077;BME280;54866;53.458;14.540;2022-10-15T07:21:38;99961.75;;;11.35;100.00
68077;BME280;54866;53.458;14.540;2022-10-15T07:24:08;99963.68;;;11.41;100.00
68077;BME280;54866;53.458;14.540;2022-10-15T07:26:38;99964.86;;;11.45;100.00
68077;BME280;54866;53.458;14.540;2022-10-15T07:29:08;99961.11;;;11.50;100.00
68077;BME280;54866;53.458;14.540;2022-10-15T07:31:38;99964.75;;;11.54;100.00
68077;BME280;54866;53.458;14.540;2022-10-15T07:34:07;99967.09;;;11.57;100.00
68077;BME280;54866;53.458;14.540;2022-10-15T07:36:37;99968.50;;;11.61;100.00
68077;BME280;54866;53.458;14.540;2022-10-15T07:39:07;99971.02;;;11.66;100.00
68077;BME280;54866;53.458;14.540;2022-10-15T07:41:37;99972.63;;;11.71;100.00
68077;BME280;54866;53.458;14.540;2022-10-15T07:44:07;99973.73;;;11.74;100.00
68077;BME280;54866;53.458;14.540;2022-10-15T07:46:37;99972.40;;;11.80;100.00
68077;BME280;54866;53.458;14.540;2022-10-15T07:49:06;99977.32;;;11.86;100.00
68077;BME280;54866;53.458;14.540;2022-10-15T07:51:38;99977.53;;;11.93;100.00
68077;BME280;54866;53.458;14.540;2022-10-15T07:54:08;99978.69;;;11.99;100.00
68077;BME280;54866;53.458;14.540;2022-10-15T07:56:38;99982.70;;;12.04;100.00
68077;BME280;54866;53.458;14.540;2022-10-15T07:59:08;99982.70;;;12.05;100.00
68077;BME280;54866;53.458;14.540;2022-10-15T08:01:38;99980.12;;;12.04;100.00
68077;BME280;54866;53.458;14.540;2022-10-15T08:04:08;99983.44;;;12.02;100.00
68077;BME280;54866;53.458;14.540;2022-10-15T08:06:37;99984.77;;;12.03;100.00
68077;BME280;54866;53.458;14.540;2022-10-15T08:09:07;99987.48;;;12.05;100.00
68077;BME280;54866;53.458;14.540;2022-10-15T08:11:37;99985.75;;;12.08;100.00
68077;BME280;54866;53.458;14.540;2022-10-15T08:14:07;99986.02;;;12.11;100.00
68077;BME280;54866;53.458;14.540;2022-10-15T08:16:36;99992.03;;;12.16;100.00
68077;BME280;54866;53.458;14.540;2022-10-15T08:19:06;99995.27;;;12.19;100.00
68077;BME280;54866;53.458;14.540;2022-10-15T08:21:36;99994.55;;;12.23;100.00
68077;BME280;54866;53.458;14.540;2022-10-15T08:24:06;100000.86;;;12.25;100.00
68077;BME280;54866;53.458;14.540;2022-10-15T08:26:36;100005.52;;;12.28;100.00
68077;BME280;54866;53.458;14.540;2022-10-15T08:29:06;100004.64;;;12.32;100.00
68077;BME280;54866;53.458;14.540;2022-10-15T08:31:36;100004.17;;;12.35;100.00
68077;BME280;54866;53.458;14.540;2022-10-15T08:34:06;99998.14;;;12.39;100.00
68077;BME280;54866;53.458;14.540;2022-10-15T08:36:36;99997.61;;;12.45;100.00
68077;BME280;54866;53.458;14.540;2022-10-15T08:39:06;99995.95;;;12.50;100.00
68077;BME280;54866;53.458;14.540;2022-10-15T08:41:40;99998.19;;;12.56;100.00
68077;BME280;54866;53.458;14.540;2022-10-15T08:44:18;99999.12;;;12.61;100.00
68077;BME280;54866;53.458;14.540;2022-10-15T08:46:51;99999.90;;;12.66;100.00
68077;BME280;54866;53.458;14.540;2022-10-15T08:49:29;100004.02;;;12.71;100.00
68077;BME280;54866;53.458;14.540;2022-10-15T08:52:11;100005.67;;;12.78;100.00
68077;BME280;54866;53.458;14.540;2022-10-15T08:54:45;100006.86;;;12.83;100.00
68077;BME280;54866;53.458;14.540;2022-10-15T08:57:22;100000.63;;;12.89;100.00
68077;BME280;54866;53.458;14.540;2022-10-15T09:00:03;99996.20;;;12.96;100.00
68077;BME280;54866;53.458;14.540;2022-10-15T09:02:36;99999.98;;;13.05;100.00
68077;BME280;54866;53.458;14.540;2022-10-15T09:05:27;100006.27;;;13.14;100.00
68077;BME280;54866;53.458;14.540;2022-10-15T09:08:02;100010.97;;;13.22;100.00
68077;BME280;54866;53.458;14.540;2022-10-15T09:10:37;100009.59;;;13.29;100.00
68077;BME280;54866;53.458;14.540;2022-10-15T09:13:13;100015.02;;;13.35;100.00
68077;BME280;54866;53.458;14.540;2022-10-15T09:15:49;100011.29;;;13.42;100.00
68077;BME280;54866;53.458;14.540;2022-10-15T09:18:22;100005.83;;;13.59;100.00
68077;BME280;54866;53.458;14.540;2022-10-15T09:20:53;100004.90;;;13.85;100.00
68077;BME280;54866;53.458;14.540;2022-10-15T09:23:25;100004.98;;;14.57;100.00
68077;BME280;54866;53.458;14.540;2022-10-15T09:26:01;100004.95;;;15.69;95.77
68077;BME280;54866;53.458;14.540;2022-10-15T09:28:40;99999.91;;;17.39;89.87
68077;BME280;54866;53.458;14.540;2022-10-15T09:31:14;100003.05;;;17.92;86.41
68077;BME280;54866;53.458;14.540;2022-10-15T09:33:51;100002.91;;;18.21;82.56
68077;BME280;54866;53.458;14.540;2022-10-15T09:36:33;100001.02;;;18.41;80.03
68077;BME280;54866;53.458;14.540;2022-10-15T09:39:14;100002.77;;;19.23;78.48
68077;BME280;54866;53.458;14.540;2022-10-15T09:41:56;100005.14;;;19.22;75.47
68077;BME280;54866;53.458;14.540;2022-10-15T09:44:35;100009.16;;;19.04;75.00
68077;BME280;54866;53.458;14.540;2022-10-15T09:47:15;100004.86;;;18.96;74.86
68077;BME280;54866;53.458;14.540;2022-10-15T09:49:46;100008.98;;;19.14;72.23
68077;BME280;54866;53.458;14.540;2022-10-15T09:52:23;100004.36;;;19.56;70.79
68077;BME280;54866;53.458;14.540;2022-10-15T09:55:02;100011.25;;;19.52;71.16
68077;BME280;54866;53.458;14.540;2022-10-15T09:57:36;100011.23;;;19.44;70.44
68077;BME280;54866;53.458;14.540;2022-10-15T10:00:09;100013.28;;;18.99;72.49
68077;BME280;54866;53.458;14.540;2022-10-15T10:02:41;100013.04;;;18.59;73.55
68077;BME280;54866;53.458;14.540;2022-10-15T10:05:27;100023.60;;;18.05;72.75
68077;BME280;54866;53.458;14.540;2022-10-15T10:08:13;100030.80;;;17.76;74.45
68077;BME280;54866;53.458;14.540;2022-10-15T10:10:54;100029.36;;;17.62;74.55
68077;BME280;54866;53.458;14.540;2022-10-15T10:13:27;100038.08;;;17.26;75.84
68077;BME280;54866;53.458;14.540;2022-10-15T10:16:04;100034.17;;;16.83;78.13
68077;BME280;54866;53.458;14.540;2022-10-15T10:18:34;100041.02;;;16.56;79.71
68077;BME280;54866;53.458;14.540;2022-10-15T10:21:08;100038.25;;;16.35;80.61
68077;BME280;54866;53.458;14.540;2022-10-15T10:23:48;100037.81;;;16.09;81.94
68077;BME280;54866;53.458;14.540;2022-10-15T10:26:18;100046.38;;;15.82;83.17
68077;BME280;54866;53.458;14.540;2022-10-15T10:28:51;100043.31;;;15.58;84.03
68077;BME280;54866;53.458;14.540;2022-10-15T10:31:29;100044.61;;;15.52;85.34
68077;BME280;54866;53.458;14.540;2022-10-15T10:34:02;100043.06;;;15.67;84.91
68077;BME280;54866;53.458;14.540;2022-10-15T10:36:33;100042.84;;;15.77;84.13
68077;BME280;54866;53.458;14.540;2022-10-15T10:39:23;100045.25;;;15.74;84.41
68077;BME280;54866;53.458;14.540;2022-10-15T10:41:55;100044.40;;;15.85;84.76
68077;BME280;54866;53.458;14.540;2022-10-15T10:44:30;100040.48;;;16.12;83.09
68077;BME280;54866;53.458;14.540;2022-10-15T10:47:09;100038.10;;;16.22;82.46
68077;BME280;54866;53.458;14.540;2022-10-15T10:49:41;100042.88;;;16.21;81.97
68077;BME280;54866;53.458;14.540;2022-10-15T10:52:21;100041.92;;;16.17;82.15
68077;BME280;54866;53.458;14.540;2022-10-15T10:54:58;100040.77;;;16.11;82.58
68077;BME280;54866;53.458;14.540;2022-10-15T10:57:34;100042.66;;;16.04;82.42
68077;BME280;54866;53.458;14.540;2022-10-15T11:00:14;100043.24;;;15.95;82.54
68077;BME280;54866;53.458;14.540;2022-10-15T11:02:45;100037.48;;;16.07;82.55
68077;BME280;54866;53.458;14.540;2022-10-15T11:05:17;100034.91;;;16.77;81.89
68077;BME280;54866;53.458;14.540;2022-10-15T11:07:53;100029.69;;;18.07;75.83
68077;BME280;54866;53.458;14.540;2022-10-15T11:10:31;100024.65;;;18.70;70.36
68077;BME280;54866;53.458;14.540;2022-10-15T11:13:16;100032.98;;;18.51;70.03
68077;BME280;54866;53.458;14.540;2022-10-15T11:15:58;100029.63;;;18.04;70.75
68077;BME280;54866;53.458;14.540;2022-10-15T11:18:43;100033.95;;;17.57;72.12
68077;BME280;54866;53.458;14.540;2022-10-15T11:21:25;100037.84;;;17.18;73.27
68077;BME280;54866;53.458;14.540;2022-10-15T11:24:07;100036.02;;;16.98;74.12
68077;BME280;54866;53.458;14.540;2022-10-15T11:26:47;100037.73;;;17.17;74.26
68077;BME280;54866;53.458;14.540;2022-10-15T11:29:26;100033.56;;;18.08;72.49
68077;BME280;54866;53.458;14.540;2022-10-15T11:32:04;100029.99;;;19.24;68.60
68077;BME280;54866;53.458;14.540;2022-10-15T11:34:43;100030.52;;;20.62;65.92
68077;BME280;54866;53.458;14.540;2022-10-15T11:37:28;100032.48;;;21.12;61.83
68077;BME280;54866;53.458;14.540;2022-10-15T11:40:14;100025.81;;;21.63;59.27
68077;BME280;54866;53.458;14.540;2022-10-15T11:42:53;100017.11;;;22.27;56.93
68077;BME280;54866;53.458;14.540;2022-10-15T11:47:58;100013.65;;;23.27;54.29
68077;BME280;54866;53.458;14.540;2022-10-15T11:50:31;100010.29;;;23.80;52.77
68077;BME280;54866;53.458;14.540;2022-10-15T11:53:15;100013.12;;;24.07;50.30
68077;BME280;54866;53.458;14.540;2022-10-15T11:55:56;100015.70;;;23.26;51.02
68077;BME280;54866;53.458;14.540;2022-10-15T11:58:30;100021.13;;;23.14;52.08
68077;BME280;54866;53.458;14.540;2022-10-15T12:01:06;100018.80;;;23.43;50.92
68077;BME280;54866;53.458;14.540;2022-10-15T12:03:44;100014.30;;;23.62;51.01
68077;BME280;54866;53.458;14.540;2022-10-15T12:06:20;100009.69;;;23.57;49.24
68077;BME280;54866;53.458;14.540;2022-10-15T12:08:51;100009.10;;;23.78;49.08
68077;BME280;54866;53.458;14.540;2022-10-15T12:11:32;100005.30;;;23.29;49.82
68077;BME280;54866;53.458;14.540;2022-10-15T12:14:15;100000.48;;;23.13;50.97
68077;BME280;54866;53.458;14.540;2022-10-15T12:16:54;99996.77;;;23.43;49.87
68077;BME280;54866;53.458;14.540;2022-10-15T12:19:31;99994.05;;;23.71;49.53
68077;BME280;54866;53.458;14.540;2022-10-15T12:22:06;99999.11;;;24.00;49.59
68077;BME280;54866;53.458;14.540;2022-10-15T12:24:52;100007.24;;;24.20;48.07
68077;BME280;54866;53.458;14.540;2022-10-15T12:27:31;99995.91;;;24.32;47.11
68077;BME280;54866;53.458;14.540;2022-10-15T12:30:24;99997.04;;;23.99;47.41
68077;BME280;54866;53.458;14.540;2022-10-15T12:32:55;99989.56;;;23.41;49.35
68077;BME280;54866;53.458;14.540;2022-10-15T12:35:32;99997.11;;;22.97;50.30
68077;BME280;54866;53.458;14.540;2022-10-15T12:38:17;100004.00;;;22.45;51.62
68077;BME280;54866;53.458;14.540;2022-10-15T12:40:56;100003.09;;;21.99;52.67
68077;BME280;54866;53.458;14.540;2022-10-15T12:43:27;100006.06;;;21.74;53.62
68077;BME280;54866;53.458;14.540;2022-10-15T12:46:00;100009.68;;;21.34;55.65
68077;BME280;54866;53.458;14.540;2022-10-15T12:48:36;100010.53;;;21.02;56.03
68077;BME280;54866;53.458;14.540;2022-10-15T12:51:38;100011.80;;;20.54;57.51
68077;BME280;54866;53.458;14.540;2022-10-15T12:54:36;100013.98;;;20.05;59.50
68077;BME280;54866;53.458;14.540;2022-10-15T13:00:29;100011.97;;;19.21;62.46
68077;BME280;54866;53.458;14.540;2022-10-15T13:03:19;100011.89;;;18.87;63.84
68077;BME280;54866;53.458;14.540;2022-10-15T13:05:51;100012.44;;;18.64;64.98
68077;BME280;54866;53.458;14.540;2022-10-15T13:08:24;100020.21;;;18.50;65.63
68077;BME280;54866;53.458;14.540;2022-10-15T13:10:58;100019.55;;;18.47;65.88
68077;BME280;54866;53.458;14.540;2022-10-15T13:13:30;100017.84;;;18.65;66.18
68077;BME280;54866;53.458;14.540;2022-10-15T13:16:04;100015.43;;;18.99;65.37
68077;BME280;54866;53.458;14.540;2022-10-15T13:18:36;100009.16;;;19.39;64.47